sensor_id;sensor_type;location;lat;lon;timestamp;P1;durP1;ratioP1;P2;durP2;ratioP2
26113;SDS011;13966;48.828;9.064;2023-03-21T00:01:22;6.05;;;3.95;;
26113;SDS011;13966;48.828;9.064;2023-03-21T00:03:48;6.07;;;4.25;;
26113;SDS011;13966;48.828;9.064;2023-03-21T00:06:15;5.07;;;3.80;;
26113;SDS011;13966;48.828;9.064;2023-03-21T00:08:41;6.22;;;3.55;;
26113;SDS011;13966;48.828;9.064;2023-03-21T00:11:09;5.88;;;4.40;;
26113;SDS011;13966;48.828;9.064;2023-03-21T00:13:36;8.55;;;4.30;;
26113;SDS011;13966;48.828;9.064;2023-03-21T00:16:05;6.00;;;4.00;;
26113;SDS011;13966;48.828;9.064;2023-03-21T00:18:33;7.07;;;4.30;;
26113;SDS011;13966;48.828;9.064;2023-03-21T00:21:05;5.85;;;3.85;;
26113;SDS011;13966;48.828;9.064;2023-03-21T00:23:33;7.03;;;4.10;;
26113;SDS011;13966;48.828;9.064;2023-03-21T00:26:00;8.57;;;4.28;;
26113;SDS011;13966;48.828;9.064;2023-03-21T00:28:26;9.95;;;4.13;;
26113;SDS011;13966;48.828;9.064;2023-03-21T00:30:58;5.63;;;3.97;;
26113;SDS011;13966;48.828;9.064;2023-03-21T00:33:25;6.78;;;4.22;;
26113;SDS011;13966;48.828;9.064;2023-03-21T00:35:51;8.18;;;4.70;;
26113;SDS011;13966;48.828;9.064;2023-03-21T00:38:18;5.32;;;4.38;;
26113;SDS011;13966;48.828;9.064;2023-03-21T00:40:44;7.28;;;4.32;;
26113;SDS011;13966;48.828;9.064;2023-03-21T00:43:10;7.63;;;4.35;;
26113;SDS011;13966;48.828;9.064;2023-03-21T00:45:36;7.80;;;4.90;;
26113;SDS011;13966;48.828;9.064;2023-03-21T00:48:03;7.05;;;4.45;;
26113;SDS011;13966;48.828;9.064;2023-03-21T00:50:29;8.52;;;4.45;;
26113;SDS011;13966;48.828;9.064;2023-03-21T00:52:58;8.68;;;4.75;;
26113;SDS011;13966;48.828;9.064;2023-03-21T00:55:24;5.90;;;4.50;;
26113;SDS011;13966;48.828;9.064;2023-03-21T00:57:50;7.40;;;4.60;;
26113;SDS011;13966;48.828;9.064;2023-03-21T01:00:16;6.55;;;4.18;;
26113;SDS011;13966;48.828;9.064;2023-03-21T01:02:43;9.93;;;4.63;;
26113;SDS011;13966;48.828;9.064;2023-03-21T01:05:21;6.13;;;4.47;;
26113;SDS011;13966;48.828;9.064;2023-03-21T01:08:07;9.40;;;4.95;;
26113;SDS011;13966;48.828;9.064;2023-03-21T01:10:36;6.78;;;3.95;;
26113;SDS011;13966;48.828;9.064;2023-03-21T01:13:02;9.55;;;4.43;;
26113;SDS011;13966;48.828;9.064;2023-03-21T01:15:28;7.35;;;4.82;;
26113;SDS011;13966;48.828;9.064;2023-03-21T01:17:54;7.93;;;4.63;;
26113;SDS011;13966;48.828;9.064;2023-03-21T01:20:20;6.68;;;4.43;;
26113;SDS011;13966;48.828;9.064;2023-03-21T01:22:46;10.43;;;4.65;;
26113;SDS011;13966;48.828;9.064;2023-03-21T01:25:13;7.95;;;4.65;;
26113;SDS011;13966;48.828;9.064;2023-03-21T01:27:39;5.90;;;4.40;;
26113;SDS011;13966;48.828;9.064;2023-03-21T01:30:05;7.47;;;4.25;;
26113;SDS011;13966;48.828;9.064;2023-03-21T01:32:31;6.30;;;4.70;;
26113;SDS011;13966;48.828;9.064;2023-03-21T01:34:58;6.07;;;4.70;;
26113;SDS011;13966;48.828;9.064;2023-03-21T01:37:24;6.88;;;4.28;;
26113;SDS011;13966;48.828;9.064;2023-03-21T01:39:50;7.97;;;4.78;;
26113;SDS011;13966;48.828;9.064;2023-03-21T01:42:16;7.50;;;4.80;;
26113;SDS011;13966;48.828;9.064;2023-03-21T01:44:56;7.65;;;3.97;;
26113;SDS011;13966;48.828;9.064;2023-03-21T01:47:23;7.22;;;4.70;;
26113;SDS011;13966;48.828;9.064;2023-03-21T01:49:50;10.20;;;5.22;;
26113;SDS011;13966;48.828;9.064;2023-03-21T01:52:19;6.68;;;4.68;;
26113;SDS011;13966;48.828;9.064;2023-03-21T01:54:48;9.20;;;5.30;;
26113;SDS011;13966;48.828;9.064;2023-03-21T01:57:20;7.72;;;4.80;;
26113;SDS011;13966;48.828;9.064;2023-03-21T01:59:47;7.70;;;4.88;;
26113;SDS011;13966;48.828;9.064;2023-03-21T02:02:16;6.93;;;5.03;;
26113;SDS011;13966;48.828;9.064;2023-03-21T02:04:44;5.82;;;4.75;;
26113;SDS011;13966;48.828;9.064;2023-03-21T02:07:15;6.50;;;4.97;;
26113;SDS011;13966;48.828;9.064;2023-03-21T02:09:46;10.27;;;5.28;;
26113;SDS011;13966;48.828;9.064;2023-03-21T02:12:13;6.13;;;4.87;;
26113;SDS011;13966;48.828;9.064;2023-03-21T02:14:40;8.23;;;4.97;;
26113;SDS011;13966;48.828;9.064;2023-03-21T02:17:18;8.95;;;4.90;;
26113;SDS011;13966;48.828;9.064;2023-03-21T02:19:56;10.18;;;5.07;;
26113;SDS011;13966;48.828;9.064;2023-03-21T02:25:17;7.60;;;4.85;;
26113;SDS011;13966;48.828;9.064;2023-03-21T02:27:54;7.25;;;5.22;;
26113;SDS011;13966;48.828;9.064;2023-03-21T02:30:37;7.97;;;5.50;;
26113;SDS011;13966;48.828;9.064;2023-03-21T02:33:15;8.30;;;5.40;;
26113;SDS011;13966;48.828;9.064;2023-03-21T02:35:52;6.97;;;4.82;;
26113;SDS011;13966;48.828;9.064;2023-03-21T02:38:25;9.20;;;5.45;;
26113;SDS011;13966;48.828;9.064;2023-03-21T02:43:31;5.70;;;4.47;;
26113;SDS011;13966;48.828;9.064;2023-03-21T02:49:20;7.75;;;4.72;;
26113;SDS011;13966;48.828;9.064;2023-03-21T02:51:47;6.25;;;4.28;;
26113;SDS011;13966;48.828;9.064;2023-03-21T02:54:16;4.88;;;4.20;;
26113;SDS011;13966;48.828;9.064;2023-03-21T02:56:43;7.35;;;4.60;;
26113;SDS011;13966;48.828;9.064;2023-03-21T02:59:09;7.25;;;4.53;;
26113;SDS011;13966;48.828;9.064;2023-03-21T03:01:36;7.65;;;4.25;;
26113;SDS011;13966;48.828;9.064;2023-03-21T03:04:02;6.82;;;4.57;;
26113;SDS011;13966;48.828;9.064;2023-03-21T03:06:30;5.40;;;4.28;;
26113;SDS011;13966;48.828;9.064;2023-03-21T03:09:27;7.55;;;4.53;;
26113;SDS011;13966;48.828;9.064;2023-03-21T03:11:59;8.07;;;5.03;;
26113;SDS011;13966;48.828;9.064;2023-03-21T03:20:22;7.80;;;4.75;;
26113;SDS011;13966;48.828;9.064;2023-03-21T03:22:23;7.55;;;4.88;;
26113;SDS011;13966;48.828;9.064;2023-03-21T03:24:58;7.15;;;4.60;;
26113;SDS011;13966;48.828;9.064;2023-03-21T03:27:30;7.70;;;5.38;;
26113;SDS011;13966;48.828;9.064;2023-03-21T03:29:58;9.85;;;5.30;;
26113;SDS011;13966;48.828;9.064;2023-03-21T03:32:27;7.10;;;4.85;;
26113;SDS011;13966;48.828;9.064;2023-03-21T03:34:54;6.30;;;4.22;;
26113;SDS011;13966;48.828;9.064;2023-03-21T03:37:22;5.70;;;4.32;;
26113;SDS011;13966;48.828;9.064;2023-03-21T03:40:07;7.55;;;4.55;;
26113;SDS011;13966;48.828;9.064;2023-03-21T03:42:34;7.13;;;3.90;;
26113;SDS011;13966;48.828;9.064;2023-03-21T03:45:01;4.90;;;4.18;;
26113;SDS011;13966;48.828;9.064;2023-03-21T03:47:36;4.45;;;3.95;;
26113;SDS011;13966;48.828;9.064;2023-03-21T03:50:12;7.35;;;4.55;;
26113;SDS011;13966;48.828;9.064;2023-03-21T03:52:43;7.82;;;4.88;;
26113;SDS011;13966;48.828;9.064;2023-03-21T03:55:11;6.85;;;4.25;;
26113;SDS011;13966;48.828;9.064;2023-03-21T03:57:38;5.95;;;4.35;;
26113;SDS011;13966;48.828;9.064;2023-03-21T04:00:05;5.25;;;4.40;;
26113;SDS011;13966;48.828;9.064;2023-03-21T04:02:37;6.03;;;4.38;;
26113;SDS011;13966;48.828;9.064;2023-03-21T04:05:03;6.45;;;4.10;;
26113;SDS011;13966;48.828;9.064;2023-03-21T04:07:30;4.68;;;3.58;;
26113;SDS011;13966;48.828;9.064;2023-03-21T04:09:56;9.32;;;4.50;;
26113;SDS011;13966;48.828;9.064;2023-03-21T04:12:22;6.57;;;4.30;;
26113;SDS011;13966;48.828;9.064;2023-03-21T04:14:49;7.40;;;4.50;;
26113;SDS011;13966;48.828;9.064;2023-03-21T04:17:15;9.23;;;4.60;;
26113;SDS011;13966;48.828;9.064;2023-03-21T04:19:42;8.00;;;4.32;;
26113;SDS011;13966;48.828;9.064;2023-03-21T04:22:09;8.57;;;5.10;;
26113;SDS011;13966;48.828;9.064;2023-03-21T04:24:36;6.20;;;4.10;;
26113;SDS011;13966;48.828;9.064;2023-03-21T04:27:03;7.88;;;4.72;;
26113;SDS011;13966;48.828;9.064;2023-03-21T04:29:30;9.40;;;4.38;;
26113;SDS011;13966;48.828;9.064;2023-03-21T04:31:56;6.93;;;4.80;;
26113;SDS011;13966;48.828;9.064;2023-03-21T04:34:22;7.72;;;4.80;;
26113;SDS011;13966;48.828;9.064;2023-03-21T04:36:51;7.47;;;4.60;;
26113;SDS011;13966;48.828;9.064;2023-03-21T04:39:18;9.10;;;4.53;;
26113;SDS011;13966;48.828;9.064;2023-03-21T04:41:44;10.15;;;4.93;;
26113;SDS011;13966;48.828;9.064;2023-03-21T04:44:12;5.63;;;4.05;;
26113;SDS011;13966;48.828;9.064;2023-03-21T04:46:38;8.73;;;4.88;;
26113;SDS011;13966;48.828;9.064;2023-03-21T04:49:05;6.78;;;4.35;;
26113;SDS011;13966;48.828;9.064;2023-03-21T04:51:32;5.53;;;4.32;;
26113;SDS011;13966;48.828;9.064;2023-03-21T04:53:58;6.15;;;4.07;;
26113;SDS011;13966;48.828;9.064;2023-03-21T04:56:28;4.90;;;4.00;;
26113;SDS011;13966;48.828;9.064;2023-03-21T04:58:58;6.25;;;4.13;;
26113;SDS011;13966;48.828;9.064;2023-03-21T05:01:24;6.63;;;4.28;;
26113;SDS011;13966;48.828;9.064;2023-03-21T05:03:54;6.72;;;4.35;;
26113;SDS011;13966;48.828;9.064;2023-03-21T05:06:20;4.90;;;3.72;;
26113;SDS011;13966;48.828;9.064;2023-03-21T05:08:46;5.82;;;4.00;;
26113;SDS011;13966;48.828;9.064;2023-03-21T05:11:12;6.72;;;3.90;;
26113;SDS011;13966;48.828;9.064;2023-03-21T05:13:38;7.78;;;3.80;;
26113;SDS011;13966;48.828;9.064;2023-03-21T05:16:05;8.65;;;3.90;;
26113;SDS011;13966;48.828;9.064;2023-03-21T05:18:31;9.15;;;4.20;;
26113;SDS011;13966;48.828;9.064;2023-03-21T05:20:58;6.93;;;4.50;;
26113;SDS011;13966;48.828;9.064;2023-03-21T05:23:24;5.72;;;3.83;;
26113;SDS011;13966;48.828;9.064;2023-03-21T05:25:55;10.23;;;5.20;;
26113;SDS011;13966;48.828;9.064;2023-03-21T05:28:21;6.85;;;5.05;;
26113;SDS011;13966;48.828;9.064;2023-03-21T05:30:47;7.18;;;4.53;;
26113;SDS011;13966;48.828;9.064;2023-03-21T05:33:13;8.02;;;4.63;;
26113;SDS011;13966;48.828;9.064;2023-03-21T05:35:39;7.07;;;4.20;;
26113;SDS011;13966;48.828;9.064;2023-03-21T05:38:05;6.00;;;4.22;;
26113;SDS011;13966;48.828;9.064;2023-03-21T05:40:31;13.70;;;4.57;;
26113;SDS011;13966;48.828;9.064;2023-03-21T05:42:57;7.05;;;4.18;;
26113;SDS011;13966;48.828;9.064;2023-03-21T05:45:23;9.70;;;4.82;;
26113;SDS011;13966;48.828;9.064;2023-03-21T05:47:50;7.13;;;3.90;;
26113;SDS011;13966;48.828;9.064;2023-03-21T05:50:16;12.32;;;4.07;;
26113;SDS011;13966;48.828;9.064;2023-03-21T05:52:42;6.40;;;4.43;;
26113;SDS011;13966;48.828;9.064;2023-03-21T05:55:08;7.00;;;4.15;;
26113;SDS011;13966;48.828;9.064;2023-03-21T05:57:34;7.80;;;4.70;;
26113;SDS011;13966;48.828;9.064;2023-03-21T06:00:03;10.10;;;4.22;;
26113;SDS011;13966;48.828;9.064;2023-03-21T06:02:29;10.07;;;5.13;;
26113;SDS011;13966;48.828;9.064;2023-03-21T06:04:55;7.32;;;4.65;;
26113;SDS011;13966;48.828;9.064;2023-03-21T06:07:21;9.65;;;4.93;;
26113;SDS011;13966;48.828;9.064;2023-03-21T06:09:47;9.70;;;4.93;;
26113;SDS011;13966;48.828;9.064;2023-03-21T06:12:14;9.00;;;4.30;;
26113;SDS011;13966;48.828;9.064;2023-03-21T06:14:40;7.18;;;4.00;;
26113;SDS011;13966;48.828;9.064;2023-03-21T06:17:06;7.75;;;4.57;;
26113;SDS011;13966;48.828;9.064;2023-03-21T06:19:32;7.53;;;4.15;;
26113;SDS011;13966;48.828;9.064;2023-03-21T06:21:58;7.13;;;4.32;;
26113;SDS011;13966;48.828;9.064;2023-03-21T06:24:24;7.70;;;4.32;;
26113;SDS011;13966;48.828;9.064;2023-03-21T06:26:51;5.72;;;4.20;;
26113;SDS011;13966;48.828;9.064;2023-03-21T06:29:17;5.70;;;4.22;;
26113;SDS011;13966;48.828;9.064;2023-03-21T06:31:43;6.95;;;3.83;;
26113;SDS011;13966;48.828;9.064;2023-03-21T06:34:09;5.07;;;3.83;;
26113;SDS011;13966;48.828;9.064;2023-03-21T06:36:36;7.80;;;4.20;;
26113;SDS011;13966;48.828;9.064;2023-03-21T06:39:02;7.78;;;4.13;;
26113;SDS011;13966;48.828;9.064;2023-03-21T06:41:28;6.18;;;3.97;;
26113;SDS011;13966;48.828;9.064;2023-03-21T06:43:54;5.53;;;3.88;;
26113;SDS011;13966;48.828;9.064;2023-03-21T06:46:20;5.32;;;3.63;;
26113;SDS011;13966;48.828;9.064;2023-03-21T06:48:46;9.18;;;4.00;;
26113;SDS011;13966;48.828;9.064;2023-03-21T06:51:13;7.95;;;4.07;;
26113;SDS011;13966;48.828;9.064;2023-03-21T06:53:39;5.05;;;3.15;;
26113;SDS011;13966;48.828;9.064;2023-03-21T06:56:06;5.82;;;3.70;;
26113;SDS011;13966;48.828;9.064;2023-03-21T06:58:33;4.65;;;3.30;;
26113;SDS011;13966;48.828;9.064;2023-03-21T07:00:59;6.40;;;3.17;;
26113;SDS011;13966;48.828;9.064;2023-03-21T07:03:25;4.90;;;3.33;;
26113;SDS011;13966;48.828;9.064;2023-03-21T07:05:51;5.18;;;3.78;;
26113;SDS011;13966;48.828;9.064;2023-03-21T07:08:18;5.82;;;3.33;;
26113;SDS011;13966;48.828;9.064;2023-03-21T07:10:44;6.78;;;3.63;;
26113;SDS011;13966;48.828;9.064;2023-03-21T07:13:11;5.35;;;3.10;;
26113;SDS011;13966;48.828;9.064;2023-03-21T07:15:37;4.82;;;3.05;;
26113;SDS011;13966;48.828;9.064;2023-03-21T07:18:04;4.75;;;2.90;;
26113;SDS011;13966;48.828;9.064;2023-03-21T07:20:31;4.53;;;3.08;;
26113;SDS011;13966;48.828;9.064;2023-03-21T07:22:57;5.22;;;2.83;;
26113;SDS011;13966;48.828;9.064;2023-03-21T07:25:23;3.55;;;2.55;;
26113;SDS011;13966;48.828;9.064;2023-03-21T07:27:49;4.47;;;2.85;;
26113;SDS011;13966;48.828;9.064;2023-03-21T07:30:16;5.05;;;3.20;;
26113;SDS011;13966;48.828;9.064;2023-03-21T07:32:42;5.65;;;3.53;;
26113;SDS011;13966;48.828;9.064;2023-03-21T07:35:10;6.50;;;3.17;;
26113;SDS011;13966;48.828;9.064;2023-03-21T07:37:36;5.47;;;3.17;;
26113;SDS011;13966;48.828;9.064;2023-03-21T07:40:03;4.43;;;2.92;;
26113;SDS011;13966;48.828;9.064;2023-03-21T07:42:35;4.20;;;3.28;;
26113;SDS011;13966;48.828;9.064;2023-03-21T07:45:01;4.07;;;3.20;;
26113;SDS011;13966;48.828;9.064;2023-03-21T07:47:29;5.00;;;3.22;;
26113;SDS011;13966;48.828;9.064;2023-03-21T07:49:55;5.13;;;2.80;;
26113;SDS011;13966;48.828;9.064;2023-03-21T07:52:21;4.78;;;3.00;;
26113;SDS011;13966;48.828;9.064;2023-03-21T07:54:47;4.57;;;3.20;;
26113;SDS011;13966;48.828;9.064;2023-03-21T07:57:13;5.40;;;3.10;;
26113;SDS011;13966;48.828;9.064;2023-03-21T07:59:39;11.27;;;3.45;;
26113;SDS011;13966;48.828;9.064;2023-03-21T08:02:05;6.00;;;3.03;;
26113;SDS011;13966;48.828;9.064;2023-03-21T08:04:32;6.70;;;3.08;;
26113;SDS011;13966;48.828;9.064;2023-03-21T08:06:59;7.40;;;2.78;;
26113;SDS011;13966;48.828;9.064;2023-03-21T08:09:25;4.97;;;2.83;;
26113;SDS011;13966;48.828;9.064;2023-03-21T08:11:51;5.15;;;2.80;;
26113;SDS011;13966;48.828;9.064;2023-03-21T08:14:17;3.40;;;2.67;;
26113;SDS011;13966;48.828;9.064;2023-03-21T08:16:43;4.03;;;2.53;;
26113;SDS011;13966;48.828;9.064;2023-03-21T08:19:09;6.25;;;2.53;;
26113;SDS011;13966;48.828;9.064;2023-03-21T08:21:35;4.22;;;2.67;;
26113;SDS011;13966;48.828;9.064;2023-03-21T08:24:03;5.32;;;2.17;;
26113;SDS011;13966;48.828;9.064;2023-03-21T08:26:29;7.80;;;2.70;;
26113;SDS011;13966;48.828;9.064;2023-03-21T08:28:56;3.83;;;2.30;;
26113;SDS011;13966;48.828;9.064;2023-03-21T08:31:22;3.97;;;2.25;;
26113;SDS011;13966;48.828;9.064;2023-03-21T08:33:48;5.07;;;2.67;;
26113;SDS011;13966;48.828;9.064;2023-03-21T08:36:18;5.45;;;1.95;;
26113;SDS011;13966;48.828;9.064;2023-03-21T08:38:44;4.10;;;2.00;;
26113;SDS011;13966;48.828;9.064;2023-03-21T08:41:12;3.47;;;2.03;;
26113;SDS011;13966;48.828;9.064;2023-03-21T08:43:38;3.03;;;1.60;;
26113;SDS011;13966;48.828;9.064;2023-03-21T08:46:04;4.20;;;2.17;;
26113;SDS011;13966;48.828;9.064;2023-03-21T08:48:30;5.65;;;2.20;;
26113;SDS011;13966;48.828;9.064;2023-03-21T08:50:58;3.10;;;2.00;;
26113;SDS011;13966;48.828;9.064;2023-03-21T08:53:24;3.03;;;1.90;;
26113;SDS011;13966;48.828;9.064;2023-03-21T08:55:50;3.67;;;2.22;;
26113;SDS011;13966;48.828;9.064;2023-03-21T08:58:16;4.20;;;1.98;;
26113;SDS011;13966;48.828;9.064;2023-03-21T09:00:42;5.18;;;2.33;;
26113;SDS011;13966;48.828;9.064;2023-03-21T09:03:08;2.20;;;1.58;;
26113;SDS011;13966;48.828;9.064;2023-03-21T09:05:34;5.88;;;2.00;;
26113;SDS011;13966;48.828;9.064;2023-03-21T09:08:01;5.75;;;2.15;;
26113;SDS011;13966;48.828;9.064;2023-03-21T09:10:27;3.63;;;2.03;;
26113;SDS011;13966;48.828;9.064;2023-03-21T09:12:54;2.78;;;1.65;;
26113;SDS011;13966;48.828;9.064;2023-03-21T09:15:21;3.90;;;1.85;;
26113;SDS011;13966;48.828;9.064;2023-03-21T09:17:48;4.75;;;2.38;;
26113;SDS011;13966;48.828;9.064;2023-03-21T09:20:16;2.97;;;1.73;;
26113;SDS011;13966;48.828;9.064;2023-03-21T09:22:45;2.70;;;1.63;;
26113;SDS011;13966;48.828;9.064;2023-03-21T09:25:13;2.30;;;1.40;;
26113;SDS011;13966;48.828;9.064;2023-03-21T09:27:39;4.07;;;1.75;;
26113;SDS011;13966;48.828;9.064;2023-03-21T09:30:07;4.75;;;1.60;;
26113;SDS011;13966;48.828;9.064;2023-03-21T09:32:34;2.40;;;1.40;;
26113;SDS011;13966;48.828;9.064;2023-03-21T09:35:01;3.97;;;1.60;;
26113;SDS011;13966;48.828;9.064;2023-03-21T09:37:29;4.03;;;1.38;;
26113;SDS011;13966;48.828;9.064;2023-03-21T09:39:57;2.95;;;1.42;;
26113;SDS011;13966;48.828;9.064;2023-03-21T09:45:11;3.45;;;1.40;;
26113;SDS011;13966;48.828;9.064;2023-03-21T09:47:45;2.47;;;1.45;;
26113;SDS011;13966;48.828;9.064;2023-03-21T09:50:18;5.05;;;1.60;;
26113;SDS011;13966;48.828;9.064;2023-03-21T09:55:16;4.93;;;1.70;;
26113;SDS011;13966;48.828;9.064;2023-03-21T09:57:44;2.55;;;1.30;;
26113;SDS011;13966;48.828;9.064;2023-03-21T10:00:13;4.05;;;1.80;;
26113;SDS011;13966;48.828;9.064;2023-03-21T10:02:47;5.43;;;1.50;;
26113;SDS011;13966;48.828;9.064;2023-03-21T10:05:20;2.85;;;1.42;;
26113;SDS011;13966;48.828;9.064;2023-03-21T10:07:57;4.90;;;1.52;;
26113;SDS011;13966;48.828;9.064;2023-03-21T10:10:30;3.17;;;1.40;;
26113;SDS011;13966;48.828;9.064;2023-03-21T10:12:57;2.53;;;1.58;;
26113;SDS011;13966;48.828;9.064;2023-03-21T10:15:24;3.28;;;1.65;;
26113;SDS011;13966;48.828;9.064;2023-03-21T10:17:55;4.30;;;1.90;;
26113;SDS011;13966;48.828;9.064;2023-03-21T10:20:28;1.85;;;1.35;;
26113;SDS011;13966;48.828;9.064;2023-03-21T10:22:55;5.70;;;1.58;;
26113;SDS011;13966;48.828;9.064;2023-03-21T10:25:27;2.60;;;1.48;;
26113;SDS011;13966;48.828;9.064;2023-03-21T10:27:54;2.75;;;1.60;;
26113;SDS011;13966;48.828;9.064;2023-03-21T10:30:25;4.10;;;1.40;;
26113;SDS011;13966;48.828;9.064;2023-03-21T10:32:53;2.83;;;1.58;;
26113;SDS011;13966;48.828;9.064;2023-03-21T10:35:20;6.07;;;1.48;;
26113;SDS011;13966;48.828;9.064;2023-03-21T10:37:46;3.75;;;1.70;;
26113;SDS011;13966;48.828;9.064;2023-03-21T10:40:13;1.83;;;1.30;;
26113;SDS011;13966;48.828;9.064;2023-03-21T10:42:40;2.67;;;1.27;;
26113;SDS011;13966;48.828;9.064;2023-03-21T10:45:13;1.55;;;1.20;;
26113;SDS011;13966;48.828;9.064;2023-03-21T10:47:39;3.00;;;1.42;;
26113;SDS011;13966;48.828;9.064;2023-03-21T10:50:07;4.30;;;1.40;;
26113;SDS011;13966;48.828;9.064;2023-03-21T10:52:33;2.72;;;1.20;;
26113;SDS011;13966;48.828;9.064;2023-03-21T10:55:04;2.30;;;1.40;;
26113;SDS011;13966;48.828;9.064;2023-03-21T10:57:32;3.13;;;1.50;;
26113;SDS011;13966;48.828;9.064;2023-03-21T10:59:59;3.60;;;1.38;;
26113;SDS011;13966;48.828;9.064;2023-03-21T11:02:36;5.07;;;1.65;;
26113;SDS011;13966;48.828;9.064;2023-03-21T11:05:03;2.88;;;1.27;;
26113;SDS011;13966;48.828;9.064;2023-03-21T11:07:30;4.57;;;1.50;;
26113;SDS011;13966;48.828;9.064;2023-03-21T11:09:57;2.15;;;1.38;;
26113;SDS011;13966;48.828;9.064;2023-03-21T11:12:28;3.90;;;1.23;;
26113;SDS011;13966;48.828;9.064;2023-03-21T11:14:55;2.17;;;1.10;;
26113;SDS011;13966;48.828;9.064;2023-03-21T11:17:28;1.08;;;0.77;;
26113;SDS011;13966;48.828;9.064;2023-03-21T11:20:00;0.70;;;0.68;;
26113;SDS011;13966;48.828;9.064;2023-03-21T11:22:29;1.98;;;1.20;;
26113;SDS011;13966;48.828;9.064;2023-03-21T11:24:59;1.88;;;1.05;;
26113;SDS011;13966;48.828;9.064;2023-03-21T11:27:27;1.53;;;1.00;;
26113;SDS011;13966;48.828;9.064;2023-03-21T11:29:54;2.10;;;1.08;;
26113;SDS011;13966;48.828;9.064;2023-03-21T11:34:52;2.00;;;1.20;;
26113;SDS011;13966;48.828;9.064;2023-03-21T11:40:07;4.82;;;1.10;;
26113;SDS011;13966;48.828;9.064;2023-03-21T11:42:40;1.52;;;1.10;;
26113;SDS011;13966;48.828;9.064;2023-03-21T11:45:11;2.60;;;1.10;;
26113;SDS011;13966;48.828;9.064;2023-03-21T11:50:13;1.95;;;0.80;;
26113;SDS011;13966;48.828;9.064;2023-03-21T11:52:42;2.58;;;0.82;;
26113;SDS011;13966;48.828;9.064;2023-03-21T11:55:18;0.93;;;0.47;;
26113;SDS011;13966;48.828;9.064;2023-03-21T12:05:57;2.30;;;0.85;;
26113;SDS011;13966;48.828;9.064;2023-03-21T12:19:19;2.08;;;1.00;;
26113;SDS011;13966;48.828;9.064;2023-03-21T12:24:22;2.47;;;1.30;;
26113;SDS011;13966;48.828;9.064;2023-03-21T12:32:02;1.55;;;1.10;;
26113;SDS011;13966;48.828;9.064;2023-03-21T12:39:50;2.35;;;1.27;;
26113;SDS011;13966;48.828;9.064;2023-03-21T12:42:28;4.47;;;1.30;;
26113;SDS011;13966;48.828;9.064;2023-03-21T12:45:01;1.65;;;0.85;;
26113;SDS011;13966;48.828;9.064;2023-03-21T12:47:29;1.92;;;1.00;;
26113;SDS011;13966;48.828;9.064;2023-03-21T12:50:02;2.08;;;0.90;;
26113;SDS011;13966;48.828;9.064;2023-03-21T12:52:33;2.50;;;1.15;;
26113;SDS011;13966;48.828;9.064;2023-03-21T12:55:02;3.53;;;1.17;;
26113;SDS011;13966;48.828;9.064;2023-03-21T13:05:21;4.25;;;1.40;;
26113;SDS011;13966;48.828;9.064;2023-03-21T13:07:53;1.48;;;1.20;;
26113;SDS011;13966;48.828;9.064;2023-03-21T13:10:21;3.03;;;1.15;;
26113;SDS011;13966;48.828;9.064;2023-03-21T13:20:25;2.55;;;1.70;;
26113;SDS011;13966;48.828;9.064;2023-03-21T13:22:53;1.88;;;1.50;;
26113;SDS011;13966;48.828;9.064;2023-03-21T13:25:21;1.55;;;1.10;;
26113;SDS011;13966;48.828;9.064;2023-03-21T13:27:53;2.60;;;1.40;;
26113;SDS011;13966;48.828;9.064;2023-03-21T13:30:22;2.42;;;1.30;;
26113;SDS011;13966;48.828;9.064;2023-03-21T13:32:50;3.88;;;1.63;;
26113;SDS011;13966;48.828;9.064;2023-03-21T13:35:18;4.15;;;1.50;;
26113;SDS011;13966;48.828;9.064;2023-03-21T13:37:48;2.67;;;1.05;;
26113;SDS011;13966;48.828;9.064;2023-03-21T13:40:20;3.47;;;1.40;;
26113;SDS011;13966;48.828;9.064;2023-03-21T13:42:49;3.28;;;1.40;;
26113;SDS011;13966;48.828;9.064;2023-03-21T13:45:24;2.05;;;1.42;;
26113;SDS011;13966;48.828;9.064;2023-03-21T13:47:52;2.03;;;1.40;;
26113;SDS011;13966;48.828;9.064;2023-03-21T13:53:09;3.85;;;1.67;;
26113;SDS011;13966;48.828;9.064;2023-03-21T13:55:39;2.60;;;1.33;;
26113;SDS011;13966;48.828;9.064;2023-03-21T14:03:35;5.88;;;1.70;;
26113;SDS011;13966;48.828;9.064;2023-03-21T14:06:03;2.13;;;1.50;;
26113;SDS011;13966;48.828;9.064;2023-03-21T14:08:29;3.92;;;1.60;;
26113;SDS011;13966;48.828;9.064;2023-03-21T14:10:57;4.70;;;1.75;;
26113;SDS011;13966;48.828;9.064;2023-03-21T14:13:25;4.28;;;1.70;;
26113;SDS011;13966;48.828;9.064;2023-03-21T14:15:57;3.85;;;2.10;;
26113;SDS011;13966;48.828;9.064;2023-03-21T14:18:25;2.88;;;1.80;;
26113;SDS011;13966;48.828;9.064;2023-03-21T14:20:52;3.03;;;1.60;;
26113;SDS011;13966;48.828;9.064;2023-03-21T14:23:19;3.42;;;1.65;;
26113;SDS011;13966;48.828;9.064;2023-03-21T14:25:46;8.32;;;1.77;;
26113;SDS011;13966;48.828;9.064;2023-03-21T14:28:20;3.08;;;1.30;;
26113;SDS011;13966;48.828;9.064;2023-03-21T14:30:54;3.05;;;1.50;;
26113;SDS011;13966;48.828;9.064;2023-03-21T14:35:59;6.82;;;1.70;;
26113;SDS011;13966;48.828;9.064;2023-03-21T14:38:27;2.50;;;1.70;;
26113;SDS011;13966;48.828;9.064;2023-03-21T14:40:57;5.53;;;1.70;;
26113;SDS011;13966;48.828;9.064;2023-03-21T14:43:23;3.10;;;1.50;;
26113;SDS011;13966;48.828;9.064;2023-03-21T14:45:50;4.15;;;1.73;;
26113;SDS011;13966;48.828;9.064;2023-03-21T14:48:18;5.75;;;1.70;;
26113;SDS011;13966;48.828;9.064;2023-03-21T14:53:14;4.15;;;1.58;;
26113;SDS011;13966;48.828;9.064;2023-03-21T14:55:42;1.60;;;1.20;;
26113;SDS011;13966;48.828;9.064;2023-03-21T14:58:10;9.70;;;2.22;;
26113;SDS011;13966;48.828;9.064;2023-03-21T15:00:37;5.40;;;1.65;;
26113;SDS011;13966;48.828;9.064;2023-03-21T15:03:03;5.80;;;1.75;;
26113;SDS011;13966;48.828;9.064;2023-03-21T15:05:31;3.97;;;1.70;;
26113;SDS011;13966;48.828;9.064;2023-03-21T15:08:02;3.92;;;1.60;;
26113;SDS011;13966;48.828;9.064;2023-03-21T15:10:31;3.10;;;1.50;;
26113;SDS011;13966;48.828;9.064;2023-03-21T15:12:59;5.35;;;1.88;;
26113;SDS011;13966;48.828;9.064;2023-03-21T15:15:26;5.68;;;1.63;;
26113;SDS011;13966;48.828;9.064;2023-03-21T15:17:52;5.60;;;2.03;;
26113;SDS011;13966;48.828;9.064;2023-03-21T15:20:21;6.07;;;1.90;;
26113;SDS011;13966;48.828;9.064;2023-03-21T15:22:49;5.22;;;1.90;;
26113;SDS011;13966;48.828;9.064;2023-03-21T15:25:16;3.92;;;2.05;;
26113;SDS011;13966;48.828;9.064;2023-03-21T15:27:43;6.32;;;2.50;;
26113;SDS011;13966;48.828;9.064;2023-03-21T15:30:20;5.60;;;2.00;;
26113;SDS011;13966;48.828;9.064;2023-03-21T15:32:46;4.40;;;2.08;;
26113;SDS011;13966;48.828;9.064;2023-03-21T15:35:36;4.32;;;2.00;;
26113;SDS011;13966;48.828;9.064;2023-03-21T15:37:59;5.32;;;2.20;;
26113;SDS011;13966;48.828;9.064;2023-03-21T15:40:27;4.18;;;2.30;;
26113;SDS011;13966;48.828;9.064;2023-03-21T15:45:44;4.63;;;3.00;;
26113;SDS011;13966;48.828;9.064;2023-03-21T15:48:11;5.55;;;3.03;;
26113;SDS011;13966;48.828;9.064;2023-03-21T15:50:39;3.53;;;2.13;;
26113;SDS011;13966;48.828;9.064;2023-03-21T15:53:09;5.57;;;2.03;;
26113;SDS011;13966;48.828;9.064;2023-03-21T15:58:07;5.07;;;2.35;;
26113;SDS011;13966;48.828;9.064;2023-03-21T16:00:38;3.28;;;2.05;;
26113;SDS011;13966;48.828;9.064;2023-03-21T16:03:15;4.10;;;2.60;;
26113;SDS011;13966;48.828;9.064;2023-03-21T16:05:42;5.90;;;2.97;;
26113;SDS011;13966;48.828;9.064;2023-03-21T16:08:26;4.03;;;2.80;;
26113;SDS011;13966;48.828;9.064;2023-03-21T16:10:52;5.82;;;2.50;;
26113;SDS011;13966;48.828;9.064;2023-03-21T16:13:18;3.15;;;2.10;;
26113;SDS011;13966;48.828;9.064;2023-03-21T16:15:44;5.20;;;2.25;;
26113;SDS011;13966;48.828;9.064;2023-03-21T16:18:12;5.50;;;2.15;;
26113;SDS011;13966;48.828;9.064;2023-03-21T16:20:39;4.20;;;2.10;;
26113;SDS011;13966;48.828;9.064;2023-03-21T16:23:07;8.00;;;2.45;;
26113;SDS011;13966;48.828;9.064;2023-03-21T16:25:33;2.72;;;2.08;;
26113;SDS011;13966;48.828;9.064;2023-03-21T16:27:59;7.63;;;2.40;;